Time;durP1;ratioP1;P1;durP2;ratioP2;P2;SDS_P1;SDS_P2;PMS_P1;PMS_P2;Temp;Humidity;BMP_temperature;BMP_pressure;BME280_temperature;BME280_humidity;BME280_pressure;Samples;Min_cycle;Max_cycle;Signal;HPM_P1;HPM_P2
2022/12/20 00:01:24;;;;;;;;;;;10.90;99.90;;;;;;5046895;28;19916;-65
2022/12/20 00:03:50;;;;;;;;;;;10.90;99.90;;;;;;5045555;28;20374;-65
2022/12/20 00:06:16;;;;;;;;;;;10.80;99.90;;;;;;5047049;28;20408;-63
2022/12/20 00:08:41;;;;;;;;;;;10.70;99.90;;;;;;5046177;28;19916;-65
2022/12/20 00:11:08;;;;;;;;;;;10.60;99.90;;;;;;5047360;28;20019;-65
2022/12/20 00:13:34;;;;;;;;;;;10.60;99.90;;;;;;5044240;28;20047;-65
2022/12/20 00:16:03;;;;;;;;;;;10.60;99.90;;;;;;5047594;28;19999;-64
2022/12/20 00:18:28;;;;;;;;;;;10.60;99.90;;;;;;5047334;28;19913;-63
2022/12/20 00:20:57;;;;;;;;;;;10.60;99.90;;;;;;5048548;28;19924;-65
2022/12/20 00:23:23;;;;;;;;;;;10.60;99.90;;;;;;5045609;28;19925;-66
2022/12/20 00:25:48;;;;;;;;;;;10.50;99.90;;;;;;5048071;28;19920;-65
2022/12/20 00:28:14;;;;;;;;;;;10.50;99.90;;;;;;5054387;28;19923;-64
2022/12/20 00:30:39;;;;;;;;;;;10.40;99.90;;;;;;5047908;28;20003;-64
2022/12/20 00:33:04;;;;;;;;;;;10.40;99.90;;;;;;5047078;28;19940;-63
2022/12/20 00:35:30;;;;;;;;;;;10.30;99.90;;;;;;5053300;28;19940;-65
2022/12/20 00:37:55;;;;;;;;;;;10.30;99.90;;;;;;5047809;28;19924;-64
2022/12/20 00:40:21;;;;;;;;;;;10.20;99.90;;;;;;5051075;28;20057;-65
2022/12/20 00:42:46;;;;;;;;;;;10.20;99.90;;;;;;5049308;28;19913;-63
2022/12/20 00:45:12;;;;;;;;;;;10.10;99.90;;;;;;5050682;28;19917;-63
2022/12/20 00:47:37;;;;;;;;;;;10.10;99.90;;;;;;5053415;28;20383;-64
2022/12/20 00:50:03;;;;;;;;;;;10.10;99.90;;;;;;5050178;28;20529;-63
2022/12/20 00:52:28;;;;;;;;;;;10.10;99.90;;;;;;5052284;28;19986;-64
2022/12/20 00:54:53;;;;;;;;;;;10.10;99.90;;;;;;5054222;28;20016;-65
2022/12/20 00:57:19;;;;;;;;;;;10.00;99.90;;;;;;5059344;28;19912;-64
2022/12/20 00:59:44;;;;;;;;;;;10.00;99.90;;;;;;5052461;28;19972;-64
2022/12/20 01:02:10;;;;;;;;;;;10.00;99.90;;;;;;5049172;28;19912;-64
2022/12/20 01:07:03;;;;;;;;;;;9.90;99.90;;;;;;5110853;22;20390;-65
2022/12/20 01:09:29;;;;;;;;;;;9.90;99.90;;;;;;5092493;28;19958;-64
2022/12/20 01:11:54;;;;;;;;;;;9.60;99.90;;;;;;5075067;28;19912;-65
2022/12/20 01:14:19;;;;;;;;;;;9.70;99.90;;;;;;5092026;28;20385;-65
2022/12/20 01:16:46;;;;;;;;;;;9.70;99.90;;;;;;5093550;28;19919;-64
2022/12/20 01:19:12;;;;;;;;;;;9.70;99.90;;;;;;5089139;28;19912;-64
2022/12/20 01:21:43;;;;;;;;;;;9.70;99.90;;;;;;5091604;28;19920;-65
2022/12/20 01:24:09;;;;;;;;;;;9.70;99.90;;;;;;5091092;28;19957;-64
2022/12/20 01:26:35;;;;;;;;;;;9.60;99.90;;;;;;5092585;28;19917;-65
2022/12/20 01:29:00;;;;;;;;;;;9.60;99.90;;;;;;5092787;28;19916;-64
2022/12/20 01:31:26;;;;;;;;;;;9.60;99.90;;;;;;5088614;28;19919;-65
2022/12/20 01:33:52;;;;;;;;;;;9.60;99.90;;;;;;5085557;28;19912;-65
2022/12/20 01:36:18;;;;;;;;;;;9.70;99.90;;;;;;5091955;28;20445;-65
2022/12/20 01:38:44;;;;;;;;;;;9.80;99.90;;;;;;5088688;28;20070;-65
2022/12/20 01:41:13;;;;;;;;;;;9.90;99.90;;;;;;5091089;28;20001;-65
2022/12/20 01:43:52;;;;;;;;;;;9.90;99.90;;;;;;5085837;28;20423;-63
2022/12/20 01:46:19;;;;;;;;;;;9.90;99.90;;;;;;5088041;28;19912;-65
2022/12/20 01:48:50;;;;;;;;;;;10.00;99.90;;;;;;5085989;28;19916;-62
2022/12/20 01:51:16;;;;;;;;;;;9.90;99.90;;;;;;5088876;28;19966;-64
2022/12/20 01:53:42;;;;;;;;;;;10.00;99.90;;;;;;5089594;28;20312;-64
2022/12/20 01:56:08;;;;;;;;;;;10.10;99.90;;;;;;5091322;28;20434;-66
2022/12/20 01:58:35;;;;;;;;;;;10.10;99.90;;;;;;5092038;28;19912;-65
2022/12/20 02:01:00;;;;;;;;;;;10.10;99.90;;;;;;5088937;28;19912;-65
2022/12/20 02:03:26;;;;;;;;;;;10.30;99.90;;;;;;5090921;28;19927;-65
2022/12/20 02:05:51;;;;;;;;;;;10.30;99.90;;;;;;5091820;28;19916;-64
2022/12/20 02:08:18;;;;;;;;;;;10.30;99.90;;;;;;5088685;28;19942;-63
2022/12/20 02:10:46;;;;;;;;;;;10.30;99.90;;;;;;5085716;28;20275;-65
2022/12/20 02:13:18;;;;;;;;;;;10.40;99.90;;;;;;5089737;28;20436;-65
2022/12/20 02:15:50;;;;;;;;;;;10.40;99.90;;;;;;5089886;28;19916;-64
2022/12/20 02:18:21;;;;;;;;;;;10.30;99.90;;;;;;5090749;28;20003;-65
2022/12/20 02:21:06;;;;;;;;;;;10.50;99.90;;;;;;5083651;28;19912;-63
2022/12/20 02:23:50;;;;;;;;;;;10.40;99.90;;;;;;5049385;28;19916;-65
2022/12/20 02:26:27;;;;;;;;;;;10.40;99.90;;;;;;5092471;28;19961;-65
2022/12/20 02:29:11;;;;;;;;;;;10.50;99.90;;;;;;5089375;28;19912;-65
2022/12/20 02:31:38;;;;;;;;;;;10.40;99.90;;;;;;5087082;28;19919;-65
2022/12/20 02:34:04;;;;;;;;;;;10.30;99.90;;;;;;5089859;28;20041;-64
2022/12/20 02:36:30;;;;;;;;;;;10.30;99.90;;;;;;5087827;28;20290;-64
2022/12/20 02:38:55;;;;;;;;;;;10.30;99.90;;;;;;5088646;28;20340;-64
2022/12/20 02:41:38;;;;;;;;;;;10.30;99.90;;;;;;5090172;28;19912;-63
2022/12/20 02:46:51;;;;;;;;;;;10.30;99.90;;;;;;5086263;28;20400;-64
2022/12/20 02:49:18;;;;;;;;;;;10.30;99.90;;;;;;5088845;28;19912;-63
2022/12/20 02:51:45;;;;;;;;;;;10.30;99.90;;;;;;5090113;28;20400;-63
2022/12/20 02:54:11;;;;;;;;;;;10.30;99.90;;;;;;5085827;28;20332;-64
2022/12/20 02:56:43;;;;;;;;;;;10.30;99.90;;;;;;5085902;28;19920;-64
2022/12/20 02:59:13;;;;;;;;;;;10.20;99.90;;;;;;5089880;28;19912;-63
2022/12/20 03:01:42;;;;;;;;;;;10.20;99.90;;;;;;5088339;28;19917;-63
2022/12/20 03:04:08;;;;;;;;;;;10.10;99.90;;;;;;5086864;28;19929;-63
2022/12/20 03:06:33;;;;;;;;;;;10.00;99.90;;;;;;5086771;28;19985;-64
2022/12/20 03:08:59;;;;;;;;;;;9.90;99.90;;;;;;5078161;28;20325;-64
2022/12/20 03:11:24;;;;;;;;;;;9.80;99.90;;;;;;5089294;28;20297;-63
2022/12/20 03:13:50;;;;;;;;;;;9.70;99.90;;;;;;5085620;28;19951;-65
2022/12/20 03:16:15;;;;;;;;;;;9.60;99.90;;;;;;5087411;28;19919;-63
2022/12/20 03:18:41;;;;;;;;;;;9.50;99.90;;;;;;5085833;28;19939;-63
2022/12/20 03:21:06;;;;;;;;;;;9.40;99.90;;;;;;5085635;28;19961;-63
2022/12/20 03:23:32;;;;;;;;;;;9.40;99.90;;;;;;5090593;28;19960;-64
2022/12/20 03:25:57;;;;;;;;;;;9.40;99.90;;;;;;5089223;28;19913;-64
2022/12/20 03:28:23;;;;;;;;;;;9.40;99.90;;;;;;5084199;28;20366;-64
2022/12/20 03:30:48;;;;;;;;;;;9.40;99.90;;;;;;5084978;28;19935;-64
2022/12/20 03:33:14;;;;;;;;;;;9.30;99.90;;;;;;5087755;28;19912;-63
2022/12/20 03:35:39;;;;;;;;;;;9.30;99.90;;;;;;5088788;28;20003;-64
2022/12/20 03:38:05;;;;;;;;;;;9.30;99.90;;;;;;5091397;28;19912;-63
2022/12/20 03:40:30;;;;;;;;;;;9.30;99.90;;;;;;5070457;28;20300;-63
2022/12/20 03:42:56;;;;;;;;;;;9.30;99.90;;;;;;5081678;28;19916;-63
2022/12/20 03:45:21;;;;;;;;;;;9.20;99.90;;;;;;5089646;28;19922;-64
2022/12/20 03:47:47;;;;;;;;;;;9.20;99.90;;;;;;5088518;28;19912;-65
2022/12/20 03:50:12;;;;;;;;;;;9.20;99.90;;;;;;5085165;28;19919;-64
2022/12/20 03:52:38;;;;;;;;;;;9.20;99.90;;;;;;5088542;28;20370;-64
2022/12/20 03:55:04;;;;;;;;;;;9.20;99.90;;;;;;5081278;28;19913;-64
2022/12/20 03:57:29;;;;;;;;;;;9.20;99.90;;;;;;5084781;28;19954;-63
2022/12/20 03:59:55;;;;;;;;;;;9.20;99.90;;;;;;5086031;28;20413;-63
2022/12/20 04:02:21;;;;;;;;;;;9.20;99.90;;;;;;5081203;28;20289;-63
2022/12/20 04:04:47;;;;;;;;;;;9.20;99.90;;;;;;5084393;28;19912;-64
2022/12/20 04:07:12;;;;;;;;;;;9.20;99.90;;;;;;5081863;28;20003;-63
2022/12/20 04:09:38;;;;;;;;;;;9.10;99.90;;;;;;5081351;28;20622;-64
2022/12/20 04:12:03;;;;;;;;;;;9.10;99.90;;;;;;5085305;28;19908;-63
2022/12/20 04:14:29;;;;;;;;;;;9.10;99.90;;;;;;5082891;28;19912;-62
2022/12/20 04:16:54;;;;;;;;;;;9.10;99.90;;;;;;5084283;28;19913;-62
2022/12/20 04:19:19;;;;;;;;;;;9.10;99.90;;;;;;5064850;28;19916;-64
2022/12/20 04:21:45;;;;;;;;;;;9.00;99.90;;;;;;5085290;28;19916;-65
2022/12/20 04:24:10;;;;;;;;;;;9.10;99.90;;;;;;5088667;28;19912;-64
2022/12/20 04:26:36;;;;;;;;;;;9.00;99.90;;;;;;5087918;28;19916;-65
2022/12/20 04:29:01;;;;;;;;;;;9.10;99.90;;;;;;5088227;28;19912;-65
2022/12/20 04:31:27;;;;;;;;;;;9.10;99.90;;;;;;5087958;28;19916;-65
2022/12/20 04:33:52;;;;;;;;;;;9.00;99.90;;;;;;5088316;28;20002;-65
2022/12/20 04:36:18;;;;;;;;;;;9.00;99.90;;;;;;5083648;28;19939;-65
2022/12/20 04:38:43;;;;;;;;;;;9.00;99.90;;;;;;5082363;28;19995;-65
2022/12/20 04:41:20;;;;;;;;;;;9.00;99.90;;;;;;5082665;28;20293;-64
2022/12/20 04:43:53;;;;;;;;;;;9.00;99.90;;;;;;5085199;28;19928;-65
2022/12/20 04:46:19;;;;;;;;;;;9.00;99.90;;;;;;5087455;28;19948;-65
2022/12/20 04:48:44;;;;;;;;;;;9.10;99.90;;;;;;5089360;28;19963;-65
2022/12/20 04:51:10;;;;;;;;;;;9.10;99.90;;;;;;5086018;28;19938;-63
2022/12/20 04:53:47;;;;;;;;;;;9.00;99.90;;;;;;5090025;28;19912;-63
2022/12/20 04:56:21;;;;;;;;;;;9.00;99.90;;;;;;5084862;28;19912;-64
2022/12/20 04:58:47;;;;;;;;;;;9.00;99.90;;;;;;5088498;28;19912;-64
2022/12/20 05:01:13;;;;;;;;;;;9.10;99.90;;;;;;5068405;28;19912;-64
2022/12/20 05:03:38;;;;;;;;;;;9.10;99.90;;;;;;5087651;28;19922;-64
2022/12/20 05:06:04;;;;;;;;;;;9.10;99.90;;;;;;5085754;28;19916;-64
2022/12/20 05:08:30;;;;;;;;;;;9.00;99.90;;;;;;5088790;28;19915;-64
2022/12/20 05:10:55;;;;;;;;;;;9.00;99.90;;;;;;5089047;28;19970;-65
2022/12/20 05:13:21;;;;;;;;;;;9.10;99.90;;;;;;5087465;28;19916;-63
2022/12/20 05:15:53;;;;;;;;;;;9.10;99.90;;;;;;5089458;28;19963;-65
2022/12/20 05:18:19;;;;;;;;;;;9.00;99.90;;;;;;5086587;28;20011;-64
2022/12/20 05:20:44;;;;;;;;;;;9.00;99.90;;;;;;5090413;28;21741;-65
2022/12/20 05:28:39;;;;;;;;;;;9.00;99.90;;;;;;5091985;28;19965;-64
2022/12/20 05:31:04;;;;;;;;;;;9.10;99.90;;;;;;5092737;28;19915;-65
2022/12/20 05:33:30;;;;;;;;;;;9.10;99.90;;;;;;5089265;28;19959;-63
2022/12/20 05:35:55;;;;;;;;;;;9.10;99.90;;;;;;5090268;28;19947;-61
2022/12/20 05:38:21;;;;;;;;;;;9.10;99.90;;;;;;5089488;28;19912;-64
2022/12/20 05:40:47;;;;;;;;;;;9.10;99.90;;;;;;5092034;28;20006;-64
2022/12/20 05:43:13;;;;;;;;;;;9.20;99.90;;;;;;5085032;28;19920;-62
2022/12/20 05:45:38;;;;;;;;;;;9.20;99.90;;;;;;5084373;28;20278;-65
2022/12/20 05:48:04;;;;;;;;;;;9.20;99.90;;;;;;5083766;28;19999;-64
2022/12/20 05:50:29;;;;;;;;;;;9.20;99.90;;;;;;5086259;28;19908;-64
2022/12/20 05:52:55;;;;;;;;;;;9.20;99.90;;;;;;5086857;28;20381;-65
2022/12/20 05:55:20;;;;;;;;;;;9.20;99.90;;;;;;5091805;28;20344;-65
2022/12/20 05:57:46;;;;;;;;;;;9.20;99.90;;;;;;5088695;28;19982;-63
2022/12/20 06:00:12;;;;;;;;;;;9.10;99.90;;;;;;5089538;28;20281;-64
2022/12/20 06:02:37;;;;;;;;;;;9.10;99.90;;;;;;5086320;28;19975;-64
2022/12/20 06:05:03;;;;;;;;;;;9.10;99.90;;;;;;5093068;28;19920;-63
2022/12/20 06:07:28;;;;;;;;;;;9.10;99.90;;;;;;5089816;28;19920;-64
2022/12/20 06:09:54;;;;;;;;;;;9.10;99.90;;;;;;5088254;28;19922;-65
2022/12/20 06:12:20;;;;;;;;;;;9.00;99.90;;;;;;5090962;28;20385;-65
2022/12/20 06:14:45;;;;;;;;;;;9.10;99.90;;;;;;5074670;28;19912;-58
2022/12/20 06:17:10;;;;;;;;;;;9.10;99.90;;;;;;5086538;28;19930;-57
2022/12/20 06:19:36;;;;;;;;;;;9.10;99.90;;;;;;5084668;28;19963;-58
2022/12/20 06:22:02;;;;;;;;;;;9.10;99.90;;;;;;5086765;28;20018;-59
2022/12/20 06:24:27;;;;;;;;;;;9.10;99.90;;;;;;5064327;28;19970;-60
2022/12/20 06:26:53;;;;;;;;;;;9.10;99.90;;;;;;5088392;28;19916;-55
2022/12/20 06:29:19;;;;;;;;;;;9.10;99.90;;;;;;5087357;28;19995;-57
2022/12/20 06:31:46;;;;;;;;;;;9.10;99.90;;;;;;5086513;28;19935;-57
2022/12/20 06:34:12;;;;;;;;;;;9.10;99.90;;;;;;5084523;28;20392;-58
2022/12/20 06:36:37;;;;;;;;;;;9.10;99.90;;;;;;5092022;28;20002;-57
2022/12/20 06:39:03;;;;;;;;;;;9.10;99.90;;;;;;5085174;28;19943;-60
2022/12/20 06:41:28;;;;;;;;;;;9.10;99.90;;;;;;5087845;28;19919;-56
2022/12/20 06:43:53;;;;;;;;;;;9.10;99.90;;;;;;5089243;28;19916;-55
2022/12/20 06:46:19;;;;;;;;;;;9.20;99.90;;;;;;5087809;28;20402;-58
2022/12/20 06:48:44;;;;;;;;;;;9.10;99.90;;;;;;5087245;28;19916;-57
2022/12/20 06:51:10;;;;;;;;;;;9.10;99.90;;;;;;5085984;28;19920;-58
2022/12/20 06:53:36;;;;;;;;;;;9.10;99.90;;;;;;5085557;28;20282;-58
2022/12/20 06:56:01;;;;;;;;;;;9.10;99.90;;;;;;5087639;28;19912;-57
2022/12/20 06:58:27;;;;;;;;;;;9.10;99.90;;;;;;5081622;28;20436;-58
2022/12/20 07:00:53;;;;;;;;;;;9.10;99.90;;;;;;5086428;28;20381;-59
2022/12/20 07:03:18;;;;;;;;;;;9.10;99.90;;;;;;5086426;28;19916;-57
2022/12/20 07:05:44;;;;;;;;;;;9.00;99.90;;;;;;5100588;22;20020;-56
2022/12/20 07:08:09;;;;;;;;;;;9.00;99.90;;;;;;5049524;28;19963;-57
2022/12/20 07:10:36;;;;;;;;;;;9.00;99.90;;;;;;5050436;28;19913;-57
2022/12/20 07:13:01;;;;;;;;;;;9.00;99.90;;;;;;5052002;28;19923;-57
2022/12/20 07:15:27;;;;;;;;;;;9.00;99.90;;;;;;5049192;28;19913;-55
2022/12/20 07:17:52;;;;;;;;;;;8.90;99.90;;;;;;5049255;28;19956;-57
2022/12/20 07:20:18;;;;;;;;;;;8.90;99.90;;;;;;5050366;28;20526;-56
2022/12/20 07:22:46;;;;;;;;;;;8.90;99.90;;;;;;5045487;28;19931;-57
2022/12/20 07:25:11;;;;;;;;;;;8.90;99.90;;;;;;5050110;28;20390;-55
2022/12/20 07:27:37;;;;;;;;;;;8.80;99.90;;;;;;5042135;28;19921;-56
2022/12/20 07:30:03;;;;;;;;;;;8.80;99.90;;;;;;5046462;28;19913;-57
2022/12/20 07:32:29;;;;;;;;;;;8.80;99.90;;;;;;5048028;28;19913;-54
2022/12/20 07:34:54;;;;;;;;;;;8.80;99.90;;;;;;5050185;28;19909;-59
2022/12/20 07:37:20;;;;;;;;;;;8.70;99.90;;;;;;5047969;28;19912;-56
2022/12/20 07:39:45;;;;;;;;;;;8.70;99.90;;;;;;5049651;28;19952;-54
2022/12/20 07:42:11;;;;;;;;;;;8.70;99.90;;;;;;5047494;28;19927;-58
2022/12/20 07:44:36;;;;;;;;;;;8.70;99.90;;;;;;5049491;28;19916;-57
2022/12/20 07:47:02;;;;;;;;;;;8.70;99.90;;;;;;5049911;28;19913;-58
2022/12/20 07:49:27;;;;;;;;;;;8.70;99.90;;;;;;5049004;28;19920;-55
2022/12/20 07:51:56;;;;;;;;;;;8.70;99.90;;;;;;5050320;28;19921;-57
2022/12/20 07:54:23;;;;;;;;;;;8.70;99.90;;;;;;5050391;28;19916;-57
2022/12/20 07:56:53;;;;;;;;;;;8.70;99.90;;;;;;5050684;28;19931;-56
2022/12/20 07:59:22;;;;;;;;;;;8.80;99.90;;;;;;5047647;28;19916;-53
2022/12/20 08:01:48;;;;;;;;;;;8.80;99.90;;;;;;5050307;28;19956;-59
2022/12/20 08:04:16;;;;;;;;;;;8.80;99.90;;;;;;5050145;28;19964;-57
2022/12/20 08:06:41;;;;;;;;;;;8.80;99.90;;;;;;5049989;28;19960;-55
2022/12/20 08:09:07;;;;;;;;;;;8.90;99.90;;;;;;5050393;28;19959;-58
2022/12/20 08:11:35;;;;;;;;;;;8.80;99.90;;;;;;5049605;28;19923;-52
2022/12/20 08:14:01;;;;;;;;;;;8.90;99.90;;;;;;5049309;28;19917;-54
2022/12/20 08:16:27;;;;;;;;;;;8.80;99.90;;;;;;5048816;28;19913;-57
2022/12/20 08:18:52;;;;;;;;;;;8.90;99.90;;;;;;5049807;28;19909;-58
2022/12/20 08:21:18;;;;;;;;;;;8.90;99.90;;;;;;5049282;28;20493;-57
2022/12/20 08:23:43;;;;;;;;;;;8.90;99.90;;;;;;5049945;28;20366;-59
2022/12/20 08:26:08;;;;;;;;;;;8.90;99.90;;;;;;5049586;28;19998;-59
2022/12/20 08:28:34;;;;;;;;;;;8.90;99.90;;;;;;5050259;28;19915;-56
2022/12/20 08:31:03;;;;;;;;;;;9.00;99.90;;;;;;5050306;28;19997;-59
2022/12/20 08:33:29;;;;;;;;;;;9.00;99.90;;;;;;5043783;28;19916;-58
2022/12/20 08:35:58;;;;;;;;;;;9.00;99.90;;;;;;5049553;28;19917;-56
2022/12/20 08:38:25;;;;;;;;;;;9.00;99.90;;;;;;5043136;28;20376;-59
2022/12/20 08:40:50;;;;;;;;;;;9.00;99.90;;;;;;5049048;28;19919;-56
2022/12/20 08:43:16;;;;;;;;;;;9.10;99.90;;;;;;5049091;28;20003;-58
2022/12/20 08:45:41;;;;;;;;;;;9.10;99.90;;;;;;5050521;28;19917;-57
2022/12/20 08:48:07;;;;;;;;;;;9.00;99.90;;;;;;5050662;28;19916;-57
2022/12/20 08:50:32;;;;;;;;;;;9.00;99.90;;;;;;5049475;28;20286;-56
2022/12/20 08:52:58;;;;;;;;;;;9.00;99.90;;;;;;5049376;28;20004;-56
2022/12/20 08:55:23;;;;;;;;;;;9.10;99.90;;;;;;5049821;28;19979;-55
2022/12/20 08:57:49;;;;;;;;;;;9.10;99.90;;;;;;5053830;28;19909;-52
2022/12/20 09:00:15;;;;;;;;;;;9.10;99.90;;;;;;5053939;28;19913;-56
2022/12/20 09:02:41;;;;;;;;;;;9.10;99.90;;;;;;5053568;28;19913;-58
2022/12/20 09:05:06;;;;;;;;;;;9.00;99.90;;;;;;5053508;28;20023;-57
2022/12/20 09:07:32;;;;;;;;;;;8.90;99.90;;;;;;5048654;28;20457;-58
2022/12/20 09:09:57;;;;;;;;;;;9.00;99.90;;;;;;5052210;28;19919;-57
2022/12/20 09:12:23;;;;;;;;;;;8.90;99.90;;;;;;5053385;28;20390;-57
2022/12/20 09:14:48;;;;;;;;;;;8.90;99.90;;;;;;5053427;28;20003;-58
2022/12/20 09:17:14;;;;;;;;;;;8.90;99.90;;;;;;5053564;28;19909;-54
2022/12/20 09:19:39;;;;;;;;;;;8.90;99.90;;;;;;5053315;28;19916;-53
2022/12/20 09:22:05;;;;;;;;;;;8.90;99.90;;;;;;5052793;28;19939;-53
2022/12/20 09:24:30;;;;;;;;;;;8.90;99.90;;;;;;5052554;28;19924;-54
2022/12/20 09:26:55;;;;;;;;;;;9.00;99.90;;;;;;5053689;28;19916;-57
2022/12/20 09:29:21;;;;;;;;;;;9.00;99.90;;;;;;5053358;28;19920;-55
2022/12/20 09:31:48;;;;;;;;;;;9.00;99.90;;;;;;5052448;28;20286;-52
2022/12/20 09:34:14;;;;;;;;;;;9.00;99.90;;;;;;5052722;28;19923;-56
2022/12/20 09:36:39;;;;;;;;;;;9.00;99.90;;;;;;5051635;28;19909;-52
2022/12/20 09:39:05;;;;;;;;;;;9.10;99.90;;;;;;5052718;28;19999;-55
2022/12/20 09:41:32;;;;;;;;;;;9.10;99.90;;;;;;5046505;28;19913;-53
2022/12/20 09:43:58;;;;;;;;;;;9.20;99.90;;;;;;5052825;28;19912;-54
2022/12/20 09:46:24;;;;;;;;;;;9.30;99.90;;;;;;5053153;28;19908;-58
2022/12/20 09:48:50;;;;;;;;;;;9.40;99.90;;;;;;5052847;28;20275;-56
2022/12/20 09:51:16;;;;;;;;;;;9.50;99.90;;;;;;5053021;28;19963;-58
2022/12/20 09:54:05;;;;;;;;;;;9.60;99.90;;;;;;5049205;28;19929;-59
2022/12/20 09:56:54;;;;;;;;;;;9.70;99.90;;;;;;5047467;28;20304;-58
2022/12/20 09:59:20;;;;;;;;;;;9.70;99.90;;;;;;5052705;28;19909;-57
2022/12/20 10:01:47;;;;;;;;;;;9.80;99.90;;;;;;5052250;28;20187;-58
2022/12/20 10:04:18;;;;;;;;;;;9.80;99.90;;;;;;5052338;28;19955;-60
2022/12/20 10:07:04;;;;;;;;;;;9.90;99.90;;;;;;5050601;28;19923;-60
2022/12/20 10:09:36;;;;;;;;;;;10.00;99.90;;;;;;5052598;28;20333;-57
2022/12/20 10:12:15;;;;;;;;;;;10.20;99.90;;;;;;5051672;28;20661;-57
2022/12/20 10:15:00;;;;;;;;;;;10.30;99.90;;;;;;5046877;28;19913;-60
2022/12/20 10:17:45;;;;;;;;;;;10.30;99.90;;;;;;5052473;28;19920;-60
2022/12/20 10:20:22;;;;;;;;;;;10.30;99.90;;;;;;5052963;28;19966;-59
2022/12/20 10:22:48;;;;;;;;;;;10.40;99.90;;;;;;5051289;28;20390;-57
2022/12/20 10:25:18;;;;;;;;;;;10.60;99.90;;;;;;5052516;28;20003;-56
2022/12/20 10:27:44;;;;;;;;;;;10.70;99.90;;;;;;5052133;28;19970;-57
2022/12/20 10:30:14;;;;;;;;;;;10.70;99.90;;;;;;5051460;28;19931;-59
2022/12/20 10:32:42;;;;;;;;;;;10.80;99.90;;;;;;5052594;28;19919;-58
2022/12/20 10:35:20;;;;;;;;;;;10.80;99.90;;;;;;5052245;28;20003;-59
2022/12/20 10:38:02;;;;;;;;;;;10.90;99.90;;;;;;5051367;28;19909;-57
2022/12/20 10:40:41;;;;;;;;;;;10.90;99.90;;;;;;5052507;28;20008;-58
2022/12/20 10:43:14;;;;;;;;;;;11.00;99.90;;;;;;5051743;28;19916;-59
2022/12/20 10:45:40;;;;;;;;;;;10.90;99.90;;;;;;5051797;28;19991;-58
2022/12/20 10:48:24;;;;;;;;;;;11.00;99.90;;;;;;5052051;28;19932;-58
2022/12/20 10:50:58;;;;;;;;;;;10.90;99.90;;;;;;5050466;28;19943;-58
2022/12/20 10:53:26;;;;;;;;;;;10.90;99.90;;;;;;5045324;28;19913;-58
2022/12/20 10:55:52;;;;;;;;;;;10.90;99.90;;;;;;5051014;28;20333;-59
2022/12/20 10:58:30;;;;;;;;;;;10.90;99.90;;;;;;5051737;28;20051;-58
2022/12/20 11:01:17;;;;;;;;;;;10.90;99.90;;;;;;5051454;28;19951;-58
2022/12/20 11:03:51;;;;;;;;;;;10.80;99.90;;;;;;5051377;28;20391;-57
2022/12/20 11:06:17;;;;;;;;;;;10.80;99.90;;;;;;5050255;28;19917;-58
2022/12/20 11:08:42;;;;;;;;;;;10.70;99.90;;;;;;5051479;28;19916;-58
2022/12/20 11:11:16;;;;;;;;;;;10.70;99.90;;;;;;5051360;28;20599;-57
2022/12/20 11:13:42;;;;;;;;;;;10.70;99.90;;;;;;5051242;28;20058;-60
2022/12/20 11:16:46;;;;;;;;;;;10.70;99.90;;;;;;5051234;28;19909;-59
2022/12/20 11:19:20;;;;;;;;;;;10.60;99.90;;;;;;5008142;28;19913;-58
2022/12/20 11:21:51;;;;;;;;;;;10.60;99.90;;;;;;5008823;28;19971;-60
2022/12/20 11:24:25;;;;;;;;;;;10.70;99.90;;;;;;5029485;28;19919;-55
2022/12/20 11:27:03;;;;;;;;;;;10.70;99.90;;;;;;5051226;28;20370;-57
2022/12/20 11:29:29;;;;;;;;;;;10.70;99.90;;;;;;5050824;28;19915;-58
2022/12/20 11:31:54;;;;;;;;;;;10.70;99.90;;;;;;5051017;28;20355;-59
2022/12/20 11:34:35;;;;;;;;;;;10.80;99.90;;;;;;5049588;28;19917;-58
2022/12/20 11:37:20;;;;;;;;;;;10.80;99.90;;;;;;5051395;28;20000;-57
2022/12/20 11:40:01;;;;;;;;;;;10.90;99.90;;;;;;5050602;28;19940;-57
2022/12/20 11:42:46;;;;;;;;;;;10.90;99.90;;;;;;5050464;28;19960;-57
2022/12/20 11:45:21;;;;;;;;;;;10.90;99.90;;;;;;5051091;28;19909;-57
2022/12/20 11:47:50;;;;;;;;;;;11.00;99.90;;;;;;5051137;28;19909;-59
2022/12/20 11:50:18;;;;;;;;;;;11.00;99.90;;;;;;5049141;28;19938;-58
2022/12/20 11:52:49;;;;;;;;;;;11.10;99.90;;;;;;5050499;28;20000;-58
2022/12/20 11:55:20;;;;;;;;;;;11.10;99.90;;;;;;5050196;28;19959;-58
2022/12/20 11:57:49;;;;;;;;;;;11.10;99.90;;;;;;5050703;28;20383;-54
2022/12/20 12:00:16;;;;;;;;;;;11.20;99.90;;;;;;5050590;28;19916;-59
2022/12/20 12:02:50;;;;;;;;;;;11.20;99.90;;;;;;5049172;28;19930;-58
2022/12/20 12:05:16;;;;;;;;;;;11.20;99.90;;;;;;5050594;28;20321;-57
2022/12/20 12:07:42;;;;;;;;;;;11.20;99.90;;;;;;5050374;28;19920;-61
2022/12/20 12:10:31;;;;;;;;;;;11.20;99.90;;;;;;5050033;28;20298;-58
2022/12/20 12:12:56;;;;;;;;;;;11.20;99.90;;;;;;5050313;28;20302;-55
2022/12/20 12:15:45;;;;;;;;;;;11.20;99.90;;;;;;5050321;28;19913;-57
2022/12/20 12:18:16;;;;;;;;;;;11.10;99.90;;;;;;5048946;28;19916;-58
2022/12/20 12:20:57;;;;;;;;;;;11.10;99.90;;;;;;5050151;28;19935;-57
2022/12/20 12:23:26;;;;;;;;;;;11.10;99.90;;;;;;5050036;28;19971;-55
2022/12/20 12:25:51;;;;;;;;;;;11.00;99.90;;;;;;5049841;28;20027;-57
2022/12/20 12:28:18;;;;;;;;;;;11.00;99.90;;;;;;5050376;28;20020;-56
2022/12/20 12:30:46;;;;;;;;;;;11.00;99.90;;;;;;5055224;28;19916;-57
2022/12/20 12:33:18;;;;;;;;;;;10.90;99.90;;;;;;5055574;28;19913;-59
2022/12/20 12:36:02;;;;;;;;;;;10.90;99.90;;;;;;5056302;28;19915;-59
2022/12/20 12:38:46;;;;;;;;;;;10.80;99.90;;;;;;5057048;28;19913;-57
2022/12/20 12:41:11;;;;;;;;;;;10.80;99.90;;;;;;5056691;28;20380;-57
2022/12/20 12:43:45;;;;;;;;;;;10.70;99.90;;;;;;5056642;28;20011;-58
2022/12/20 12:46:13;;;;;;;;;;;10.70;99.90;;;;;;5056598;28;19912;-59
2022/12/20 12:48:41;;;;;;;;;;;10.70;99.90;;;;;;5055291;28;19920;-58
2022/12/20 12:51:07;;;;;;;;;;;10.70;99.90;;;;;;5053552;28;19917;-58
2022/12/20 12:53:51;;;;;;;;;;;10.60;99.90;;;;;;5054274;28;19954;-58
2022/12/20 12:56:26;;;;;;;;;;;10.60;99.90;;;;;;5056172;28;19912;-58
2022/12/20 12:59:10;;;;;;;;;;;10.60;99.90;;;;;;5054315;28;19908;-58
2022/12/20 13:01:53;;;;;;;;;;;10.50;99.90;;;;;;5047411;28;19917;-52
2022/12/20 13:04:18;;;;;;;;;;;10.50;99.90;;;;;;5051823;28;19930;-58
2022/12/20 13:06:47;;;;;;;;;;;10.40;99.90;;;;;;5055812;28;19920;-58
2022/12/20 13:09:24;;;;;;;;;;;10.40;99.90;;;;;;5071935;22;19999;-57
2022/12/20 13:11:50;;;;;;;;;;;10.40;99.90;;;;;;5054239;28;19975;-57
2022/12/20 13:14:15;;;;;;;;;;;10.30;99.90;;;;;;5054908;28;20016;-60
2022/12/20 13:16:41;;;;;;;;;;;10.20;99.90;;;;;;5055770;28;19917;-60
2022/12/20 13:19:12;;;;;;;;;;;10.20;99.90;;;;;;5056383;28;19909;-60
2022/12/20 13:21:38;;;;;;;;;;;10.20;99.90;;;;;;5055938;28;19948;-60
2022/12/20 13:24:41;;;;;;;;;;;10.10;99.90;;;;;;5056022;28;19912;-58
2022/12/20 13:27:14;;;;;;;;;;;10.10;99.90;;;;;;4949487;28;19977;-60
2022/12/20 13:29:50;;;;;;;;;;;10.00;99.90;;;;;;5042074;28;19909;-62
2022/12/20 13:32:35;;;;;;;;;;;10.00;99.90;;;;;;5056145;28;19995;-61
2022/12/20 13:35:00;;;;;;;;;;;9.90;99.90;;;;;;5054962;28;19970;-61
2022/12/20 13:37:27;;;;;;;;;;;9.90;99.90;;;;;;5052267;28;19913;-61
2022/12/20 13:39:53;;;;;;;;;;;9.90;99.90;;;;;;5055368;28;19960;-61
2022/12/20 13:42:33;;;;;;;;;;;9.90;99.90;;;;;;5052846;28;19936;-59
2022/12/20 13:45:01;;;;;;;;;;;9.90;99.90;;;;;;5051058;28;19917;-59
2022/12/20 13:47:32;;;;;;;;;;;9.90;99.90;;;;;;5050793;28;19913;-58
2022/12/20 13:49:59;;;;;;;;;;;9.90;99.90;;;;;;5047407;28;19913;-58
2022/12/20 13:52:27;;;;;;;;;;;9.90;99.90;;;;;;5050029;28;20398;-59
2022/12/20 13:54:54;;;;;;;;;;;9.90;99.90;;;;;;5048657;28;19912;-58
2022/12/20 13:57:30;;;;;;;;;;;9.90;99.90;;;;;;5052676;28;20646;-60
2022/12/20 13:59:58;;;;;;;;;;;9.90;99.90;;;;;;5050175;28;19917;-60
2022/12/20 14:02:26;;;;;;;;;;;10.00;99.90;;;;;;5050914;28;19916;-59
2022/12/20 14:05:00;;;;;;;;;;;10.00;99.90;;;;;;5052866;28;19989;-60
2022/12/20 14:07:27;;;;;;;;;;;10.00;99.90;;;;;;5052859;28;19908;-60
2022/12/20 14:09:58;;;;;;;;;;;10.00;99.90;;;;;;5052872;28;19917;-60
2022/12/20 14:12:24;;;;;;;;;;;10.00;99.90;;;;;;5052405;28;19909;-60
2022/12/20 14:14:50;;;;;;;;;;;9.90;99.90;;;;;;5052059;28;19920;-60
2022/12/20 14:17:22;;;;;;;;;;;10.00;99.90;;;;;;5051749;28;19916;-60
2022/12/20 14:20:00;;;;;;;;;;;9.90;99.90;;;;;;5050220;28;20554;-59
2022/12/20 14:22:25;;;;;;;;;;;9.90;99.90;;;;;;5045355;28;20055;-59
2022/12/20 14:24:51;;;;;;;;;;;9.80;99.90;;;;;;5049079;28;20547;-59
2022/12/20 14:27:16;;;;;;;;;;;9.80;99.90;;;;;;5052052;28;20388;-62
2022/12/20 14:29:43;;;;;;;;;;;9.80;99.90;;;;;;5051143;28;19913;-61
2022/12/20 14:32:17;;;;;;;;;;;9.80;99.90;;;;;;5051057;28;20012;-61
2022/12/20 14:34:42;;;;;;;;;;;9.80;99.90;;;;;;5050956;28;20007;-61
2022/12/20 14:37:26;;;;;;;;;;;9.80;99.90;;;;;;5051994;28;20007;-61
2022/12/20 14:39:55;;;;;;;;;;;9.80;99.90;;;;;;5045887;28;20412;-61
2022/12/20 14:42:25;;;;;;;;;;;9.70;99.90;;;;;;5041150;28;21266;-61